sensor_id;sensor_type;location;lat;lon;timestamp;pressure;altitude;pressure_sealevel;temperature;humidity
80382;BME280;69692;55.820;37.490;2023-04-25T18:30:44;98818.50;;;17.09;47.15
80382;BME280;69692;55.820;37.490;2023-04-25T18:33:11;98814.25;;;17.03;47.75
80382;BME280;69692;55.820;37.490;2023-04-25T18:35:36;98803.72;;;16.96;47.45
80382;BME280;69692;55.820;37.490;2023-04-25T18:38:02;98810.84;;;16.92;48.12
80382;BME280;69692;55.820;37.490;2023-04-25T18:40:28;98808.00;;;16.83;48.35
80382;BME280;69692;55.820;37.490;2023-04-25T18:42:54;98804.41;;;16.88;48.28
80382;BME280;69692;55.820;37.490;2023-04-25T18:45:19;98802.91;;;16.95;48.25
80382;BME280;69692;55.820;37.490;2023-04-25T18:47:45;98806.44;;;16.96;48.57
80382;BME280;69692;55.820;37.490;2023-04-25T18:50:11;98806.91;;;17.03;48.65
80382;BME280;69692;55.820;37.490;2023-04-25T18:52:37;98802.34;;;16.98;48.66
80382;BME280;69692;55.820;37.490;2023-04-25T18:55:03;98804.28;;;16.98;49.03
80382;BME280;69692;55.820;37.490;2023-04-25T18:57:29;98796.47;;;16.91;49.25
80382;BME280;69692;55.820;37.490;2023-04-25T18:59:55;98794.78;;;16.95;49.17
80382;BME280;69692;55.820;37.490;2023-04-25T19:02:20;98793.53;;;16.88;49.53
80382;BME280;69692;55.820;37.490;2023-04-25T19:04:46;98793.53;;;16.88;49.52
80382;BME280;69692;55.820;37.490;2023-04-25T19:08:11;98794.03;;;16.90;49.63
80382;BME280;69692;55.820;37.490;2023-04-25T19:10:36;98783.47;;;16.88;49.41
80382;BME280;69692;55.820;37.490;2023-04-25T19:13:02;98784.09;;;16.80;49.73
80382;BME280;69692;55.820;37.490;2023-04-25T19:15:28;98782.38;;;16.65;50.20
80382;BME280;69692;55.820;37.490;2023-04-25T19:17:54;98775.09;;;16.61;50.59
80382;BME280;69692;55.820;37.490;2023-04-25T19:20:20;98778.13;;;16.59;50.90
80382;BME280;69692;55.820;37.490;2023-04-25T19:22:46;98772.69;;;16.59;50.77
80382;BME280;69692;55.820;37.490;2023-04-25T19:25:12;98769.75;;;16.56;51.31
80382;BME280;69692;55.820;37.490;2023-04-25T19:27:38;98767.84;;;16.56;51.10
80382;BME280;69692;55.820;37.490;2023-04-25T19:30:04;98765.72;;;16.53;51.26
80382;BME280;69692;55.820;37.490;2023-04-25T19:32:34;98765.13;;;16.56;50.77
80382;BME280;69692;55.820;37.490;2023-04-25T19:35:01;98769.22;;;16.54;50.36
80382;BME280;69692;55.820;37.490;2023-04-25T19:37:29;98767.81;;;16.37;51.05
80382;BME280;69692;55.820;37.490;2023-04-25T19:39:55;98767.25;;;16.35;51.09
80382;BME280;69692;55.820;37.490;2023-04-25T19:42:20;98756.94;;;16.37;51.03
80382;BME280;69692;55.820;37.490;2023-04-25T19:44:50;98753.94;;;16.39;51.48
80382;BME280;69692;55.820;37.490;2023-04-25T19:47:15;98747.34;;;16.45;51.00
80382;BME280;69692;55.820;37.490;2023-04-25T19:49:41;98749.47;;;16.48;51.00
80382;BME280;69692;55.820;37.490;2023-04-25T19:52:07;98743.31;;;16.43;50.89
80382;BME280;69692;55.820;37.490;2023-04-25T19:54:38;98743.81;;;16.45;51.02
80382;BME280;69692;55.820;37.490;2023-04-25T19:57:04;98744.84;;;16.49;50.92
80382;BME280;69692;55.820;37.490;2023-04-25T19:59:30;98744.53;;;16.50;50.50
80382;BME280;69692;55.820;37.490;2023-04-25T20:01:55;98736.69;;;16.49;51.00
80382;BME280;69692;55.820;37.490;2023-04-25T20:04:21;98740.69;;;16.56;50.73
80382;BME280;69692;55.820;37.490;2023-04-25T20:06:47;98731.50;;;16.52;50.78
80382;BME280;69692;55.820;37.490;2023-04-25T20:09:13;98726.88;;;16.53;50.87
80382;BME280;69692;55.820;37.490;2023-04-25T20:11:38;98724.59;;;16.60;50.78
80382;BME280;69692;55.820;37.490;2023-04-25T20:14:04;98722.69;;;16.60;50.74
80382;BME280;69692;55.820;37.490;2023-04-25T20:16:30;98722.59;;;16.47;50.90
80382;BME280;69692;55.820;37.490;2023-04-25T20:18:56;98713.94;;;16.45;50.95
80382;BME280;69692;55.820;37.490;2023-04-25T20:21:22;98712.44;;;16.33;51.23
80382;BME280;69692;55.820;37.490;2023-04-25T20:23:48;98711.13;;;16.31;51.34
80382;BME280;69692;55.820;37.490;2023-04-25T20:26:14;98710.41;;;16.25;50.91
80382;BME280;69692;55.820;37.490;2023-04-25T20:28:40;98701.97;;;16.27;51.08
80382;BME280;69692;55.820;37.490;2023-04-25T20:31:09;98700.34;;;16.26;51.20
80382;BME280;69692;55.820;37.490;2023-04-25T20:33:35;98692.00;;;16.22;51.13
80382;BME280;69692;55.820;37.490;2023-04-25T20:36:04;98689.09;;;16.14;51.33
80382;BME280;69692;55.820;37.490;2023-04-25T20:38:30;98685.56;;;16.13;51.00
80382;BME280;69692;55.820;37.490;2023-04-25T20:40:55;98680.38;;;16.17;51.16
80382;BME280;69692;55.820;37.490;2023-04-25T20:43:21;98674.88;;;16.22;50.91
80382;BME280;69692;55.820;37.490;2023-04-25T20:45:50;98669.97;;;16.24;51.25
80382;BME280;69692;55.820;37.490;2023-04-25T20:48:16;98676.13;;;16.29;51.16
80382;BME280;69692;55.820;37.490;2023-04-25T20:50:41;98664.47;;;16.29;51.61
80382;BME280;69692;55.820;37.490;2023-04-25T20:53:07;98658.59;;;16.22;51.47
80382;BME280;69692;55.820;37.490;2023-04-25T20:55:33;98659.47;;;16.17;51.99
80382;BME280;69692;55.820;37.490;2023-04-25T20:57:59;98656.34;;;16.05;52.41
80382;BME280;69692;55.820;37.490;2023-04-25T21:00:25;98655.09;;;15.97;53.31
80382;BME280;69692;55.820;37.490;2023-04-25T21:02:54;98645.88;;;15.98;52.53
80382;BME280;69692;55.820;37.490;2023-04-25T21:05:21;98646.69;;;15.99;52.86
80382;BME280;69692;55.820;37.490;2023-04-25T21:07:48;98643.50;;;15.92;53.00
80382;BME280;69692;55.820;37.490;2023-04-25T21:10:15;98645.19;;;15.88;53.71
80382;BME280;69692;55.820;37.490;2023-04-25T21:12:40;98631.75;;;15.77;52.69
80382;BME280;69692;55.820;37.490;2023-04-25T21:15:09;98636.34;;;15.77;52.24
80382;BME280;69692;55.820;37.490;2023-04-25T21:17:36;98625.56;;;15.72;52.25
80382;BME280;69692;55.820;37.490;2023-04-25T21:20:02;98624.47;;;15.73;52.32
80382;BME280;69692;55.820;37.490;2023-04-25T21:22:35;98613.91;;;15.71;52.58
80382;BME280;69692;55.820;37.490;2023-04-25T21:25:01;98618.00;;;15.69;52.91
80382;BME280;69692;55.820;37.490;2023-04-25T21:27:33;98612.81;;;15.72;53.17
80382;BME280;69692;55.820;37.490;2023-04-25T21:29:59;98606.69;;;15.62;53.35
80382;BME280;69692;55.820;37.490;2023-04-25T21:32:25;98607.22;;;15.64;53.47
80382;BME280;69692;55.820;37.490;2023-04-25T21:34:51;98605.31;;;15.64;53.38
80382;BME280;69692;55.820;37.490;2023-04-25T21:37:17;98602.63;;;15.64;53.48
80382;BME280;69692;55.820;37.490;2023-04-25T21:39:43;98605.84;;;15.66;53.59
80382;BME280;69692;55.820;37.490;2023-04-25T21:42:09;98608.56;;;15.66;53.51
80382;BME280;69692;55.820;37.490;2023-04-25T21:44:35;98599.84;;;15.69;53.78
80382;BME280;69692;55.820;37.490;2023-04-25T21:47:01;98602.63;;;15.64;53.65
80382;BME280;69692;55.820;37.490;2023-04-25T21:49:27;98607.75;;;15.66;53.87
80382;BME280;69692;55.820;37.490;2023-04-25T21:51:55;98593.47;;;15.55;54.35
80382;BME280;69692;55.820;37.490;2023-04-25T21:54:20;98593.75;;;15.54;54.83
80382;BME280;69692;55.820;37.490;2023-04-25T21:56:47;98596.78;;;15.47;55.06
80382;BME280;69692;55.820;37.490;2023-04-25T21:59:12;98584.69;;;15.39;55.94
80382;BME280;69692;55.820;37.490;2023-04-25T22:01:38;98589.00;;;15.40;56.02
80382;BME280;69692;55.820;37.490;2023-04-25T22:04:04;98584.97;;;15.38;56.41
80382;BME280;69692;55.820;37.490;2023-04-25T22:06:30;98584.19;;;15.37;56.47
80382;BME280;69692;55.820;37.490;2023-04-25T22:08:56;98580.97;;;15.30;57.23
80382;BME280;69692;55.820;37.490;2023-04-25T22:11:22;98582.59;;;15.31;57.54
80382;BME280;69692;55.820;37.490;2023-04-25T22:13:49;98580.16;;;15.35;57.12
80382;BME280;69692;55.820;37.490;2023-04-25T22:16:15;98574.88;;;15.19;57.94
80382;BME280;69692;55.820;37.490;2023-04-25T22:18:42;98564.34;;;15.18;57.89
80382;BME280;69692;55.820;37.490;2023-04-25T22:21:10;98575.72;;;15.15;58.33
80382;BME280;69692;55.820;37.490;2023-04-25T22:23:36;98567.94;;;15.08;58.74
80382;BME280;69692;55.820;37.490;2023-04-25T22:26:02;98566.91;;;15.04;59.12
80382;BME280;69692;55.820;37.490;2023-04-25T22:28:28;98570.56;;;14.89;59.78
80382;BME280;69692;55.820;37.490;2023-04-25T22:30:54;98558.13;;;14.88;60.54
80382;BME280;69692;55.820;37.490;2023-04-25T22:33:20;98558.34;;;14.92;60.53
80382;BME280;69692;55.820;37.490;2023-04-25T22:35:46;98562.47;;;14.84;61.51
80382;BME280;69692;55.820;37.490;2023-04-25T22:38:12;98566.03;;;14.80;61.92
80382;BME280;69692;55.820;37.490;2023-04-25T22:40:38;98558.50;;;14.77;61.89
80382;BME280;69692;55.820;37.490;2023-04-25T22:43:04;98561.50;;;14.75;62.45
80382;BME280;69692;55.820;37.490;2023-04-25T22:45:29;98552.00;;;14.78;62.02
80382;BME280;69692;55.820;37.490;2023-04-25T22:47:56;98545.75;;;14.77;62.35
80382;BME280;69692;55.820;37.490;2023-04-25T22:50:21;98537.06;;;14.80;62.01
80382;BME280;69692;55.820;37.490;2023-04-25T22:52:47;98541.53;;;14.66;62.88
80382;BME280;69692;55.820;37.490;2023-04-25T22:55:13;98529.13;;;14.60;64.01
80382;BME280;69692;55.820;37.490;2023-04-25T22:57:39;98529.13;;;14.60;64.22
80382;BME280;69692;55.820;37.490;2023-04-25T23:00:06;98518.63;;;14.53;64.85
80382;BME280;69692;55.820;37.490;2023-04-25T23:02:39;98520.09;;;14.36;65.36
80382;BME280;69692;55.820;37.490;2023-04-25T23:05:06;98528.53;;;14.29;67.02
80382;BME280;69692;55.820;37.490;2023-04-25T23:07:32;98514.00;;;14.20;67.03
80382;BME280;69692;55.820;37.490;2023-04-25T23:09:58;98517.09;;;14.03;67.06
80382;BME280;69692;55.820;37.490;2023-04-25T23:12:24;98522.53;;;13.93;68.62
80382;BME280;69692;55.820;37.490;2023-04-25T23:14:50;98512.84;;;13.87;68.95
80382;BME280;69692;55.820;37.490;2023-04-25T23:17:17;98515.63;;;13.77;69.41
80382;BME280;69692;55.820;37.490;2023-04-25T23:19:43;98515.63;;;13.77;69.67
80382;BME280;69692;55.820;37.490;2023-04-25T23:22:09;98512.66;;;13.68;69.75
80382;BME280;69692;55.820;37.490;2023-04-25T23:24:35;98508.94;;;13.59;70.42
80382;BME280;69692;55.820;37.490;2023-04-25T23:27:04;98504.91;;;13.56;70.04
80382;BME280;69692;55.820;37.490;2023-04-25T23:29:30;98501.44;;;13.46;70.66
80382;BME280;69692;55.820;37.490;2023-04-25T23:31:58;98497.41;;;13.38;71.13
80382;BME280;69692;55.820;37.490;2023-04-25T23:34:29;98490.69;;;13.30;71.42
80382;BME280;69692;55.820;37.490;2023-04-25T23:36:56;98490.13;;;13.38;71.49
80382;BME280;69692;55.820;37.490;2023-04-25T23:39:22;98492.28;;;13.41;71.36
80382;BME280;69692;55.820;37.490;2023-04-25T23:41:48;98484.94;;;13.47;71.33
80382;BME280;69692;55.820;37.490;2023-04-25T23:44:14;98489.31;;;13.43;71.54
80382;BME280;69692;55.820;37.490;2023-04-25T23:46:41;98476.88;;;13.42;72.04
80382;BME280;69692;55.820;37.490;2023-04-25T23:49:07;98472.56;;;13.41;72.16
80382;BME280;69692;55.820;37.490;2023-04-25T23:51:32;98477.94;;;13.46;71.65
80382;BME280;69692;55.820;37.490;2023-04-25T23:53:58;98476.88;;;13.42;72.17
80382;BME280;69692;55.820;37.490;2023-04-25T23:56:24;98470.09;;;13.45;71.84
80382;BME280;69692;55.820;37.490;2023-04-25T23:58:50;98481.47;;;13.41;71.90
